createdAt,value
2022-10-02T00:01:55.602Z,100722.69
2022-10-02T00:05:02.908Z,100721.03
2022-10-02T00:08:32.589Z,100735.81
2022-10-02T00:11:43.958Z,100729.66
2022-10-02T00:14:47.356Z,100733.50
2022-10-02T00:17:53.216Z,100740.84
2022-10-02T00:21:21.722Z,100738.34
2022-10-02T00:25:27.841Z,100745.22
2022-10-02T00:28:43.088Z,100756.59
2022-10-02T00:31:51.150Z,100751.34
2022-10-02T00:35:00.696Z,100744.38
2022-10-02T00:38:27.198Z,100752.88
2022-10-02T00:41:46.981Z,100758.28
2022-10-02T00:45:10.165Z,100768.56
2022-10-02T00:48:33.537Z,100764.53
2022-10-02T00:51:47.015Z,100769.91
2022-10-02T00:55:29.082Z,100770.94
2022-10-02T00:58:55.877Z,100770.00
2022-10-02T01:02:34.521Z,100769.75
2022-10-02T01:05:36.337Z,100756.69
2022-10-02T01:08:38.382Z,100757.31
2022-10-02T01:11:40.134Z,100757.09
2022-10-02T01:14:41.845Z,100763.41
2022-10-02T01:17:43.441Z,100768.16
2022-10-02T01:20:51.440Z,100770.81
2022-10-02T01:24:34.478Z,100760.22
2022-10-02T01:27:39.108Z,100756.69
2022-10-02T01:30:44.556Z,100764.44
2022-10-02T01:33:48.552Z,100764.59
2022-10-02T01:36:49.942Z,100761.59
2022-10-02T01:39:52.529Z,100759.81
2022-10-02T01:42:57.777Z,100759.81
2022-10-02T01:46:28.519Z,100765.19
2022-10-02T01:49:32.850Z,100760.22
2022-10-02T01:52:56.220Z,100765.78
2022-10-02T01:56:03.463Z,100758.94
2022-10-02T01:59:20.256Z,100759.00
2022-10-02T02:02:24.683Z,100760.47
2022-10-02T02:05:38.366Z,100766.69
2022-10-02T02:09:01.707Z,100762.31
2022-10-02T02:12:12.330Z,100772.16
2022-10-02T02:15:23.072Z,100769.53
2022-10-02T02:18:34.977Z,100768.28
2022-10-02T02:21:44.100Z,100765.81
2022-10-02T02:24:57.927Z,100773.47
2022-10-02T02:28:06.075Z,100776.19
2022-10-02T02:31:11.536Z,100780.63
2022-10-02T02:34:25.277Z,100776.22
2022-10-02T02:37:32.499Z,100773.41
2022-10-02T02:40:38.628Z,100770.63
2022-10-02T02:44:06.661Z,100774.19
2022-10-02T02:47:17.630Z,100773.47
2022-10-02T02:50:37.998Z,100773.31
2022-10-02T02:53:53.670Z,100775.31
2022-10-02T02:56:59.134Z,100770.81
2022-10-02T03:00:02.629Z,100774.19
2022-10-02T03:03:04.341Z,100766.31
2022-10-02T03:06:21.679Z,100760.16
2022-10-02T03:09:25.070Z,100760.88
2022-10-02T03:12:50.270Z,100762.59
2022-10-02T03:16:01.303Z,100769.03
2022-10-02T03:19:22.847Z,100768.78
2022-10-02T03:22:52.372Z,100769.75
2022-10-02T03:26:09.910Z,100773.31
2022-10-02T03:29:23.544Z,100768.88
2022-10-02T03:32:26.528Z,100778.50
2022-10-02T03:35:29.722Z,100776.53
2022-10-02T03:38:33.226Z,100778.75
2022-10-02T03:41:34.598Z,100787.00
2022-10-02T03:44:35.970Z,100787.78
2022-10-02T03:47:37.348Z,100788.72
2022-10-02T03:50:38.742Z,100795.53
2022-10-02T03:53:40.541Z,100789.09
2022-10-02T03:56:54.795Z,100786.38
2022-10-02T04:00:08.884Z,100782.81
2022-10-02T04:03:20.292Z,100791.47
2022-10-02T04:06:43.669Z,100779.88
2022-10-02T04:10:13.918Z,100782.53
2022-10-02T04:13:32.071Z,100780.94
2022-10-02T04:16:48.145Z,100784.81
2022-10-02T04:19:55.646Z,100777.75
2022-10-02T04:22:59.420Z,100783.34
2022-10-02T04:26:25.801Z,100780.31
2022-10-02T04:29:34.147Z,100785.97
2022-10-02T04:32:36.818Z,100784.00
2022-10-02T04:36:00.230Z,100788.50
2022-10-02T04:39:24.792Z,100796.75
2022-10-02T04:42:52.681Z,100787.78
2022-10-02T04:46:03.910Z,100785.56
2022-10-02T04:49:31.401Z,100778.38
2022-10-02T04:53:12.440Z,100789.13
2022-10-02T04:56:32.129Z,100778.25
2022-10-02T04:59:33.446Z,100782.09
2022-10-02T05:03:02.397Z,100789.22
2022-10-02T05:06:41.792Z,100782.09
2022-10-02T05:09:55.005Z,100787.41
2022-10-02T05:13:07.686Z,100784.88
2022-10-02T05:16:24.429Z,100785.91
2022-10-02T05:19:51.392Z,100782.59
2022-10-02T05:23:04.898Z,100787.13
2022-10-02T05:26:26.856Z,100794.28
2022-10-02T05:29:57.668Z,100794.31
2022-10-02T05:33:22.545Z,100790.75
2022-10-02T05:36:53.305Z,100790.03
2022-10-02T05:40:10.836Z,100789.22
2022-10-02T05:43:39.519Z,100790.16
2022-10-02T05:46:58.760Z,100781.41
2022-10-02T05:50:27.240Z,100782.38
2022-10-02T05:53:36.173Z,100783.25
2022-10-02T05:56:43.531Z,100782.38
2022-10-02T06:00:00.770Z,100784.13
2022-10-02T06:03:17.989Z,100795.69
2022-10-02T06:06:41.459Z,100795.69
2022-10-02T06:09:42.758Z,100802.72
2022-10-02T06:13:13.545Z,100800.06
2022-10-02T06:16:28.598Z,100804.50
2022-10-02T06:19:37.328Z,100798.28
2022-10-02T06:22:48.106Z,100796.50
2022-10-02T06:25:52.231Z,100791.16
2022-10-02T06:29:02.288Z,100800.88
2022-10-02T06:32:07.964Z,100795.50
2022-10-02T06:35:15.650Z,100793.19
2022-10-02T06:38:48.556Z,100792.38
2022-10-02T06:42:14.370Z,100777.34
2022-10-02T06:45:32.311Z,100780.91
2022-10-02T06:48:49.251Z,100779.13
2022-10-02T06:52:01.881Z,100781.97
2022-10-02T06:55:22.291Z,100787.47
2022-10-02T06:58:32.802Z,100791.56
2022-10-02T07:01:57.194Z,100790.78
2022-10-02T07:05:24.485Z,100778.69
2022-10-02T07:08:47.417Z,100772.53
2022-10-02T07:11:57.989Z,100782.28
2022-10-02T07:14:59.288Z,100793.72
2022-10-02T07:18:21.575Z,100805.75
2022-10-02T07:21:35.068Z,100796.09
2022-10-02T07:24:45.566Z,100791.84
2022-10-02T07:28:02.810Z,100784.63
2022-10-02T07:31:21.216Z,100777.72
2022-10-02T07:34:33.291Z,100765.50
2022-10-02T07:38:01.355Z,100775.25
2022-10-02T07:41:27.688Z,100763.88
2022-10-02T07:44:47.151Z,100756.69
2022-10-02T07:48:09.540Z,100765.50
2022-10-02T07:51:32.501Z,100773.28
2022-10-02T07:54:54.679Z,100778.66
2022-10-02T07:58:12.384Z,100795.06
2022-10-02T08:01:20.624Z,100776.72
2022-10-02T08:04:33.440Z,100780.19
2022-10-02T08:07:38.263Z,100790.22
2022-10-02T08:10:47.396Z,100790.22
2022-10-02T08:14:12.006Z,100777.59
2022-10-02T08:17:37.739Z,100798.78
2022-10-02T08:20:43.668Z,100821.97
2022-10-02T08:23:59.237Z,100818.88
2022-10-02T08:27:08.694Z,100807.41
2022-10-02T08:30:12.875Z,100799.91
2022-10-02T08:33:19.368Z,100782.16
2022-10-02T08:36:45.519Z,100802.16
2022-10-02T08:39:52.758Z,100786.34
2022-10-02T08:43:08.237Z,100781.91
2022-10-02T08:46:58.212Z,100784.38
2022-10-02T08:50:36.938Z,100778.06
2022-10-02T08:53:47.293Z,100793.59
2022-10-02T08:57:18.053Z,100795.34
2022-10-02T09:00:31.655Z,100787.44
2022-10-02T09:03:44.172Z,100790.75
2022-10-02T09:07:15.578Z,100779.28
2022-10-02T09:10:52.319Z,100781.81
2022-10-02T09:14:21.784Z,100772.41
2022-10-02T09:17:36.179Z,100778.56
2022-10-02T09:20:48.888Z,100782.50
2022-10-02T09:24:08.291Z,100777.94
2022-10-02T09:27:50.650Z,100781.31
2022-10-02T09:31:22.667Z,100798.41
2022-10-02T09:34:47.390Z,100811.53
2022-10-02T09:38:05.374Z,100803.78
2022-10-02T09:41:27.851Z,100807.84
2022-10-02T09:45:02.090Z,100781.13
2022-10-02T09:48:31.324Z,100784.59
2022-10-02T09:52:04.649Z,100766.91
2022-10-02T09:55:49.374Z,100764.97
2022-10-02T09:59:29.658Z,100757.97
2022-10-02T10:02:43.526Z,100755.22
2022-10-02T10:06:03.034Z,100765.56
2022-10-02T10:09:36.360Z,100764.97
2022-10-02T10:12:59.751Z,100775.56
2022-10-02T10:16:30.267Z,100784.53
2022-10-02T10:19:59.367Z,100785.16
2022-10-02T10:23:23.552Z,100782.50
2022-10-02T10:27:07.969Z,100797.84
2022-10-02T10:30:09.921Z,100812.69
2022-10-02T10:33:30.050Z,100805.53
2022-10-02T10:37:14.546Z,100810.22
2022-10-02T10:40:35.933Z,100803.03
2022-10-02T10:44:14.999Z,100799.25
2022-10-02T10:47:39.023Z,100793.09
2022-10-02T10:51:14.220Z,100800.00
2022-10-02T10:54:53.271Z,100798.25
2022-10-02T10:58:32.091Z,100791.22
2022-10-02T11:01:52.811Z,100797.28
2022-10-02T11:05:15.146Z,100791.56
2022-10-02T11:08:31.470Z,100799.72
2022-10-02T11:12:09.445Z,100802.25
2022-10-02T11:15:40.940Z,100797.59
2022-10-02T11:18:58.853Z,100796.75
2022-10-02T11:22:25.380Z,100785.06
2022-10-02T11:26:04.745Z,100778.47
2022-10-02T11:29:35.510Z,100788.13
2022-10-02T11:33:01.264Z,100773.69
2022-10-02T11:36:27.082Z,100769.63
2022-10-02T11:39:59.465Z,100769.38
2022-10-02T11:43:33.030Z,100783.50
2022-10-02T11:46:53.092Z,100795.50
2022-10-02T11:50:20.469Z,100781.53
2022-10-02T11:53:38.826Z,100787.53
2022-10-02T11:56:43.094Z,100781.47
2022-10-02T12:00:15.962Z,100796.53
2022-10-02T12:03:36.254Z,100801.81
2022-10-02T12:07:01.773Z,100788.50
2022-10-02T12:10:32.235Z,100817.47
2022-10-02T12:13:59.764Z,100808.50
2022-10-02T12:17:24.612Z,100811.25
2022-10-02T12:21:07.804Z,100824.50
2022-10-02T12:24:55.011Z,100817.63
2022-10-02T12:28:20.082Z,100803.34
2022-10-02T12:31:37.084Z,100800.66
2022-10-02T12:34:48.402Z,100801.56
2022-10-02T12:38:11.535Z,100810.59
2022-10-02T12:41:40.936Z,100789.13
2022-10-02T12:44:45.988Z,100788.88
2022-10-02T12:48:08.406Z,100792.44
2022-10-02T12:51:29.254Z,100803.09
2022-10-02T12:55:35.597Z,100809.22
2022-10-02T12:58:45.740Z,100797.50
2022-10-02T13:02:26.348Z,100797.03
2022-10-02T13:06:06.808Z,100816.50
2022-10-02T13:09:19.642Z,100807.69
2022-10-02T13:12:55.514Z,100806.75
2022-10-02T13:16:29.493Z,100820.53
2022-10-02T13:19:47.772Z,100825.19
2022-10-02T13:23:14.648Z,100788.88
2022-10-02T13:26:32.990Z,100786.75
2022-10-02T13:30:05.739Z,100793.78
2022-10-02T13:33:42.556Z,100796.44
2022-10-02T13:37:05.679Z,100799.75
2022-10-02T13:40:39.298Z,100802.16
2022-10-02T13:44:16.154Z,100794.59
2022-10-02T13:48:05.609Z,100802.81
2022-10-02T13:51:19.699Z,100809.06
2022-10-02T13:54:28.779Z,100818.72
2022-10-02T13:58:13.820Z,100817.41
2022-10-02T14:01:34.120Z,100822.84
2022-10-02T14:05:21.416Z,100827.09
2022-10-02T14:08:25.832Z,100828.69
2022-10-02T14:11:51.893Z,100823.16
2022-10-02T14:15:13.344Z,100812.66
2022-10-02T14:18:39.691Z,100821.97
2022-10-02T14:21:56.674Z,100804.81
2022-10-02T14:25:01.087Z,100797.06
2022-10-02T14:28:27.334Z,100804.47
2022-10-02T14:31:50.942Z,100809.47
2022-10-02T14:34:59.646Z,100806.59
2022-10-02T14:38:13.144Z,100800.16
2022-10-02T14:41:44.158Z,100796.72
2022-10-02T14:45:19.199Z,100789.44
2022-10-02T14:48:46.425Z,100784.25
2022-10-02T14:52:02.382Z,100772.69
2022-10-02T14:55:16.089Z,100784.13
2022-10-02T14:58:44.482Z,100784.25
2022-10-02T15:02:08.762Z,100786.13
2022-10-02T15:05:46.436Z,100793.16
2022-10-02T15:09:15.930Z,100793.22
2022-10-02T15:12:49.192Z,100796.84
2022-10-02T15:16:14.972Z,100800.63
2022-10-02T15:19:47.744Z,100813.03
2022-10-02T15:23:03.748Z,100810.19
2022-10-02T15:26:31.001Z,100811.19
2022-10-02T15:30:03.382Z,100810.47
2022-10-02T15:33:22.288Z,100813.16
2022-10-02T15:36:48.854Z,100813.03
2022-10-02T15:40:17.294Z,100821.94
2022-10-02T15:43:43.170Z,100821.78
2022-10-02T15:47:31.907Z,100830.56
2022-10-02T15:51:03.435Z,100834.78
2022-10-02T15:54:14.489Z,100837.56
2022-10-02T15:57:34.782Z,100835.97
2022-10-02T16:01:01.918Z,100841.44
2022-10-02T16:04:15.146Z,100847.66
2022-10-02T16:07:50.897Z,100856.41
2022-10-02T16:11:24.295Z,100865.56
2022-10-02T16:14:43.947Z,100876.03
2022-10-02T16:17:54.593Z,100880.53
2022-10-02T16:21:12.500Z,100882.38
2022-10-02T16:24:38.778Z,100872.72
2022-10-02T16:27:56.578Z,100880.81
2022-10-02T16:31:13.191Z,100880.00
2022-10-02T16:34:40.803Z,100887.91
2022-10-02T16:37:59.620Z,100886.19
2022-10-02T16:41:19.494Z,100892.41
2022-10-02T16:44:43.448Z,100901.38
2022-10-02T16:47:44.856Z,100909.31
2022-10-02T16:51:04.624Z,100907.53
2022-10-02T16:54:09.242Z,100918.16
2022-10-02T16:57:22.395Z,100919.16
2022-10-02T17:01:03.582Z,100922.63
2022-10-02T17:04:21.637Z,100924.47
2022-10-02T17:07:26.242Z,100921.97
2022-10-02T17:11:03.908Z,100914.19
2022-10-02T17:14:14.680Z,100907.53
2022-10-02T17:17:59.459Z,100911.66
2022-10-02T17:21:27.881Z,100907.44
2022-10-02T17:24:54.461Z,100917.28
2022-10-02T17:28:02.760Z,100914.78
2022-10-02T17:31:17.064Z,100920.16
2022-10-02T17:34:22.059Z,100921.81
2022-10-02T17:37:51.674Z,100942.97
2022-10-02T17:41:26.673Z,100961.41
2022-10-02T17:44:39.847Z,100973.06
2022-10-02T17:47:50.743Z,100970.34
2022-10-02T17:51:50.813Z,100971.25
2022-10-02T17:55:13.420Z,100966.09
2022-10-02T17:58:29.812Z,100984.69
2022-10-02T18:01:46.529Z,100988.28
2022-10-02T18:05:12.946Z,100989.00
2022-10-02T18:08:33.405Z,100996.13
2022-10-02T18:12:00.547Z,101004.19
2022-10-02T18:15:11.358Z,100993.47
2022-10-02T18:18:39.353Z,100999.69
2022-10-02T18:21:53.724Z,101011.22
2022-10-02T18:25:14.210Z,101011.25
2022-10-02T18:28:48.844Z,101016.75
2022-10-02T18:32:25.050Z,101021.19
2022-10-02T18:35:32.202Z,101025.72
2022-10-02T18:38:55.484Z,101021.31
2022-10-02T18:42:20.434Z,101033.84
2022-10-02T18:45:44.602Z,101033.97
2022-10-02T18:49:17.363Z,101044.72
2022-10-02T18:52:57.142Z,101043.81
2022-10-02T18:56:11.740Z,101042.09
2022-10-02T18:59:29.992Z,101040.22
2022-10-02T19:02:41.405Z,101043.69
2022-10-02T19:05:58.630Z,101047.16
2022-10-02T19:09:09.056Z,101052.47
2022-10-02T19:12:15.160Z,101054.81
2022-10-02T19:15:30.162Z,101069.84
2022-10-02T19:18:33.119Z,101076.22
2022-10-02T19:21:35.993Z,101074.56
2022-10-02T19:24:40.608Z,101078.88
2022-10-02T19:27:49.181Z,101085.28
2022-10-02T19:30:56.217Z,101095.16
2022-10-02T19:34:03.340Z,101094.94
2022-10-02T19:37:07.248Z,101101.91
2022-10-02T19:40:19.238Z,101102.53
2022-10-02T19:43:24.562Z,101121.91
2022-10-02T19:46:35.506Z,101128.06
2022-10-02T19:49:39.867Z,101129.81
2022-10-02T19:52:58.669Z,101148.94
2022-10-02T19:56:07.446Z,101168.19
2022-10-02T19:59:28.621Z,101168.28
2022-10-02T20:02:41.383Z,101163.94
2022-10-02T20:05:45.288Z,101160.66
2022-10-02T20:08:53.623Z,101159.63
2022-10-02T20:12:01.174Z,101166.66
2022-10-02T20:15:16.607Z,101173.53
2022-10-02T20:18:21.360Z,101168.47
2022-10-02T20:21:26.129Z,101180.88
2022-10-02T20:24:45.089Z,101183.75
2022-10-02T20:28:14.788Z,101180.16
2022-10-02T20:31:53.859Z,101192.31
2022-10-02T20:35:03.278Z,101192.09
2022-10-02T20:38:28.517Z,101195.66
2022-10-02T20:41:42.806Z,101200.97
2022-10-02T20:44:44.303Z,101211.56
2022-10-02T20:48:04.329Z,101202.00
2022-10-02T20:51:20.568Z,101214.63
2022-10-02T20:54:34.786Z,101213.97
2022-10-02T20:58:08.053Z,101229.00
2022-10-02T21:01:17.332Z,101224.69
2022-10-02T21:04:44.568Z,101224.69
2022-10-02T21:08:03.435Z,101233.47
2022-10-02T21:11:18.853Z,101227.97
2022-10-02T21:14:42.309Z,101239.69
2022-10-02T21:18:29.555Z,101249.56
2022-10-02T21:22:04.032Z,101254.16
2022-10-02T21:25:18.105Z,101253.66
2022-10-02T21:28:38.788Z,101255.63
2022-10-02T21:31:43.220Z,101265.38
2022-10-02T21:35:08.939Z,101274.25
2022-10-02T21:38:41.656Z,101264.50
2022-10-02T21:42:17.510Z,101265.47
2022-10-02T21:45:57.343Z,101278.81
2022-10-02T21:49:23.837Z,101278.19
2022-10-02T21:52:53.271Z,101277.53
2022-10-02T21:56:32.523Z,101281.13
2022-10-02T22:00:05.286Z,101284.69
2022-10-02T22:03:32.812Z,101284.56
2022-10-02T22:06:39.301Z,101289.06
2022-10-02T22:09:55.911Z,101291.75
2022-10-02T22:13:06.710Z,101290.16
2022-10-02T22:16:17.250Z,101299.16
2022-10-02T22:20:00.576Z,101296.53
2022-10-02T22:23:19.049Z,101297.44
2022-10-02T22:26:54.798Z,101296.53
2022-10-02T22:29:57.195Z,101303.75
2022-10-02T22:33:23.949Z,101309.13
2022-10-02T22:36:51.262Z,101314.50
2022-10-02T22:40:05.034Z,101307.44
2022-10-02T22:43:09.548Z,101308.28
2022-10-02T22:46:41.148Z,101315.50
2022-10-02T22:49:48.830Z,101311.13
2022-10-02T22:53:03.873Z,101320.94
2022-10-02T22:56:18.997Z,101321.03
2022-10-02T22:59:37.656Z,101329.97
2022-10-02T23:02:49.047Z,101329.81
2022-10-02T23:05:56.886Z,101332.38
2022-10-02T23:09:03.540Z,101338.94
2022-10-02T23:12:36.677Z,101345.03
2022-10-02T23:15:56.994Z,101343.25
2022-10-02T23:19:06.704Z,101330.81
2022-10-02T23:22:17.673Z,101332.03
2022-10-02T23:25:32.589Z,101325.94
2022-10-02T23:28:56.785Z,101331.34
2022-10-02T23:32:31.998Z,101341.81
2022-10-02T23:35:48.601Z,101342.69
2022-10-02T23:39:01.688Z,101358.50
2022-10-02T23:42:06.230Z,101364.59
2022-10-02T23:45:30.003Z,101373.72
2022-10-02T23:48:32.541Z,101360.69
2022-10-02T23:51:46.600Z,101357.97
2022-10-02T23:55:01.490Z,101364.13
2022-10-02T23:58:38.037Z,101365.84
